Time;durP1;ratioP1;P1;durP2;ratioP2;P2;SDS_P1;SDS_P2;PMS_P1;PMS_P2;Temp;Humidity;BMP_temperature;BMP_pressure;BME280_temperature;BME280_humidity;BME280_pressure;Samples;Min_cycle;Max_cycle;Signal;HPM_P1;HPM_P2
2022/05/31 00:00:08;;;;;;;3.78;2.63;;;23.30;35.70;;;;;;5097574;28;20023;-37
2022/05/31 00:02:34;;;;;;;3.92;2.22;;;23.30;35.80;;;;;;5097528;28;20521;-37
2022/05/31 00:05:01;;;;;;;4.50;2.60;;;23.30;35.80;;;;;;5095944;28;20043;-36
2022/05/31 00:07:27;;;;;;;3.65;2.20;;;23.30;35.90;;;;;;5096352;28;20016;-37
2022/05/31 00:09:54;;;;;;;3.30;2.25;;;23.30;36.50;;;;;;5095855;28;20036;-37
2022/05/31 00:12:20;;;;;;;3.55;2.15;;;23.30;35.90;;;;;;5096653;28;20027;-38
2022/05/31 00:14:46;;;;;;;3.97;2.53;;;23.30;36.00;;;;;;5096302;28;20043;-36
2022/05/31 00:17:13;;;;;;;3.45;2.15;;;23.30;36.00;;;;;;5094862;28;20107;-39
2022/05/31 00:19:39;;;;;;;4.82;2.30;;;23.30;36.10;;;;;;5095525;28;20026;-39
2022/05/31 00:22:13;;;;;;;3.05;2.40;;;23.30;36.10;;;;;;5098108;28;20024;-37
2022/05/31 00:24:39;;;;;;;3.38;2.13;;;23.30;36.10;;;;;;5098350;28;20020;-38
2022/05/31 00:27:06;;;;;;;3.97;2.13;;;23.30;36.10;;;;;;5097989;28;20026;-36
2022/05/31 00:29:32;;;;;;;3.55;2.20;;;23.30;36.10;;;;;;5098171;28;20018;-36
2022/05/31 00:31:59;;;;;;;3.35;2.20;;;23.30;36.10;;;;;;5097049;28;20012;-36
2022/05/31 00:34:24;;;;;;;3.47;2.58;;;23.30;36.10;;;;;;5096248;28;20493;-38
2022/05/31 00:36:51;;;;;;;3.63;2.10;;;23.30;36.20;;;;;;5100209;28;20420;-36
2022/05/31 00:39:17;;;;;;;3.80;2.42;;;23.30;36.20;;;;;;5099628;28;20046;-36
2022/05/31 00:41:59;;;;;;;3.30;2.28;;;23.30;36.20;;;;;;5098619;28;20020;-36
2022/05/31 00:44:28;;;;;;;3.42;2.22;;;23.30;36.20;;;;;;5097361;28;20501;-38
2022/05/31 00:47:07;;;;;;;3.50;2.50;;;23.30;36.30;;;;;;5100066;28;20086;-37
2022/05/31 00:49:34;;;;;;;3.85;2.60;;;23.20;36.30;;;;;;5100724;28;20352;-38
2022/05/31 00:52:02;;;;;;;3.10;2.20;;;23.30;36.30;;;;;;5095811;28;20012;-36
2022/05/31 00:54:30;;;;;;;3.97;2.47;;;23.30;36.30;;;;;;5095319;28;20065;-37
2022/05/31 00:56:56;;;;;;;2.25;1.83;;;23.30;36.40;;;;;;5095057;28;20026;-36
2022/05/31 00:59:25;;;;;;;2.97;2.15;;;23.20;36.30;;;;;;5078160;28;20478;-38
2022/05/31 01:01:52;;;;;;;3.33;2.03;;;23.30;36.40;;;;;;5078533;28;20016;-36
2022/05/31 01:04:25;;;;;;;3.20;2.40;;;23.20;36.40;;;;;;5095638;28;20012;-37
2022/05/31 01:06:55;;;;;;;3.00;2.30;;;23.20;36.50;;;;;;5082134;28;20042;-38
2022/05/31 01:09:21;;;;;;;3.90;2.40;;;23.20;36.50;;;;;;5100525;28;20040;-38
2022/05/31 01:11:49;;;;;;;3.08;2.17;;;23.20;36.50;;;;;;5082728;28;20024;-37
2022/05/31 01:14:15;;;;;;;3.05;2.28;;;23.20;36.50;;;;;;5095954;28;20016;-37
2022/05/31 01:17:00;;;;;;;3.22;2.10;;;23.20;36.50;;;;;;5096547;28;20146;-37
2022/05/31 01:22:09;;;;;;;4.60;2.30;;;23.20;36.60;;;;;;5094782;28;20063;-36
2022/05/31 01:24:46;;;;;;;3.58;2.40;;;23.20;36.60;;;;;;5094964;28;20016;-36
2022/05/31 01:27:24;;;;;;;3.60;2.28;;;23.20;36.70;;;;;;5077751;28;20013;-36
2022/05/31 01:29:50;;;;;;;3.33;2.20;;;23.10;36.70;;;;;;5094356;28;20467;-37
2022/05/31 01:32:16;;;;;;;3.53;2.22;;;23.20;37.30;;;;;;5076617;28;20015;-36
2022/05/31 01:35:00;;;;;;;3.15;2.20;;;23.10;36.70;;;;;;5095489;28;20090;-36
2022/05/31 01:37:44;;;;;;;2.88;2.25;;;23.20;36.80;;;;;;5094266;28;20012;-38
2022/05/31 01:40:15;;;;;;;3.13;2.10;;;23.20;36.80;;;;;;5093994;28;20090;-37
2022/05/31 01:42:43;;;;;;;3.45;2.20;;;23.10;36.70;;;;;;5076756;28;20022;-36
2022/05/31 01:45:21;;;;;;;3.75;2.20;;;23.10;36.80;;;;;;5076310;28;20085;-36
2022/05/31 01:47:48;;;;;;;3.72;2.30;;;23.10;36.80;;;;;;5076900;28;20024;-36
2022/05/31 01:50:18;;;;;;;4.15;2.30;;;23.20;36.90;;;;;;5093594;28;20019;-37
2022/05/31 01:52:45;;;;;;;3.92;2.15;;;23.20;36.90;;;;;;5095817;28;20023;-35
2022/05/31 01:55:11;;;;;;;3.30;2.20;;;23.10;36.90;;;;;;5094563;28;20020;-36
2022/05/31 01:57:37;;;;;;;3.38;2.28;;;23.10;36.90;;;;;;5095690;28;20024;-36
2022/05/31 02:00:07;;;;;;;2.88;2.05;;;23.20;36.90;;;;;;5077349;28;20520;-36
2022/05/31 02:02:33;;;;;;;3.10;2.05;;;23.10;36.90;;;;;;5094077;28;20047;-37
2022/05/31 02:04:59;;;;;;;3.53;2.22;;;23.20;36.90;;;;;;5094565;28;20087;-35
2022/05/31 02:07:26;;;;;;;2.67;1.98;;;23.10;36.90;;;;;;5093301;28;20028;-36
2022/05/31 02:09:52;;;;;;;3.20;2.10;;;23.10;37.00;;;;;;5092019;28;20104;-35
2022/05/31 02:12:20;;;;;;;3.53;2.33;;;23.10;37.00;;;;;;5093416;28;20013;-36
2022/05/31 02:14:46;;;;;;;2.88;2.00;;;23.10;37.00;;;;;;5093520;28;20012;-35
2022/05/31 02:17:12;;;;;;;3.67;2.35;;;23.10;37.00;;;;;;5093719;28;20012;-36
2022/05/31 02:19:39;;;;;;;2.70;2.00;;;23.10;37.10;;;;;;5093772;28;20012;-36
2022/05/31 02:22:06;;;;;;;3.00;2.20;;;23.10;37.10;;;;;;5093868;28;20100;-36
2022/05/31 02:24:33;;;;;;;3.15;1.95;;;23.10;37.10;;;;;;5094080;28;20011;-35
2022/05/31 02:26:59;;;;;;;3.55;2.20;;;23.10;37.10;;;;;;5092691;28;20467;-37
2022/05/31 02:29:26;;;;;;;2.95;1.90;;;23.10;37.10;;;;;;5094060;28;20019;-35
2022/05/31 02:31:52;;;;;;;3.28;2.10;;;23.10;37.10;;;;;;5092649;28;20026;-35
2022/05/31 02:34:22;;;;;;;2.80;2.10;;;23.10;37.20;;;;;;5094487;28;20023;-36
2022/05/31 02:36:48;;;;;;;2.75;2.13;;;23.10;37.20;;;;;;5093347;28;20027;-35
2022/05/31 02:39:14;;;;;;;2.95;2.10;;;23.10;37.20;;;;;;5093552;28;20023;-35
2022/05/31 02:41:40;;;;;;;2.72;1.92;;;23.10;37.30;;;;;;5093781;28;20043;-35
2022/05/31 02:44:06;;;;;;;3.20;2.10;;;23.00;37.30;;;;;;5094046;28;20024;-35
2022/05/31 02:46:33;;;;;;;3.60;2.08;;;23.00;37.30;;;;;;5097742;28;20138;-36
2022/05/31 02:49:00;;;;;;;3.53;2.10;;;23.00;37.30;;;;;;5097431;28;20487;-36
2022/05/31 02:51:26;;;;;;;3.33;2.08;;;23.00;37.30;;;;;;5097724;28;20027;-35
2022/05/31 02:53:53;;;;;;;2.92;2.10;;;23.00;37.30;;;;;;5097474;28;20012;-36
2022/05/31 02:56:19;;;;;;;3.30;2.22;;;23.00;37.80;;;;;;5096795;28;20024;-35
2022/05/31 02:58:45;;;;;;;2.72;2.03;;;23.00;37.30;;;;;;5099085;28;20531;-36
2022/05/31 03:01:23;;;;;;;2.85;2.17;;;23.00;37.30;;;;;;5100567;28;20028;-35
2022/05/31 03:06:37;;;;;;;2.58;1.80;;;23.00;37.30;;;;;;5077355;28;20086;-35
2022/05/31 03:09:04;;;;;;;3.67;2.17;;;23.00;37.30;;;;;;5077047;28;20032;-36
2022/05/31 03:11:43;;;;;;;3.15;2.10;;;23.00;37.30;;;;;;5077725;28;20531;-36
2022/05/31 03:14:11;;;;;;;3.37;1.87;;;23.00;37.40;;;;;;5077978;28;20120;-37
2022/05/31 03:16:38;;;;;;;2.83;1.88;;;23.00;37.40;;;;;;5076636;28;20078;-38
2022/05/31 03:19:06;;;;;;;2.67;1.80;;;23.00;37.40;;;;;;5078133;28;20028;-37
2022/05/31 03:21:59;;;;;;;2.90;1.98;;;23.00;37.50;;;;;;5077435;28;20021;-37
2022/05/31 03:24:29;;;;;;;2.95;2.03;;;23.00;37.50;;;;;;5074961;28;20505;-36
2022/05/31 03:26:55;;;;;;;2.95;2.10;;;23.00;37.50;;;;;;5076660;28;20032;-36
2022/05/31 03:29:21;;;;;;;2.72;1.92;;;22.90;37.50;;;;;;5076701;28;20134;-36
2022/05/31 03:31:47;;;;;;;3.63;2.15;;;23.00;37.50;;;;;;5077113;28;20442;-36
2022/05/31 03:34:13;;;;;;;2.30;1.92;;;23.00;37.50;;;;;;5076722;28;20023;-37
2022/05/31 03:36:39;;;;;;;2.35;1.80;;;23.00;37.60;;;;;;5077138;28;20035;-36
2022/05/31 03:39:05;;;;;;;2.28;1.98;;;23.00;37.50;;;;;;5078005;28;20493;-35
2022/05/31 03:41:34;;;;;;;3.00;1.90;;;23.00;37.50;;;;;;5078168;28;20028;-37
2022/05/31 03:44:01;;;;;;;;;;;23.00;37.50;;;;;;5091955;28;20119;-37
2022/05/31 03:46:27;;;;;;;3.10;1.95;;;23.00;37.50;;;;;;5099256;28;19931;-36
2022/05/31 03:48:53;;;;;;;2.30;1.85;;;23.00;37.50;;;;;;5098005;28;20012;-37
2022/05/31 03:51:19;;;;;;;2.38;1.85;;;23.00;37.50;;;;;;5097413;28;20008;-35
2022/05/31 03:53:45;;;;;;;2.97;1.95;;;23.00;37.60;;;;;;5096308;28;20115;-36
2022/05/31 03:56:11;;;;;;;3.10;2.15;;;23.00;37.60;;;;;;5095808;28;20514;-35
2022/05/31 03:58:38;;;;;;;2.58;2.00;;;23.00;37.60;;;;;;5096757;28;20032;-36
2022/05/31 04:01:04;;;;;;;2.88;1.80;;;22.90;37.60;;;;;;5097139;28;20023;-36
2022/05/31 04:03:30;;;;;;;2.55;1.70;;;22.90;37.60;;;;;;5096633;28;20028;-36
2022/05/31 04:05:56;;;;;;;3.15;1.88;;;23.00;37.70;;;;;;5096583;28;20011;-36
2022/05/31 04:08:21;;;;;;;2.55;1.80;;;23.00;37.70;;;;;;5078378;28;20016;-36
2022/05/31 04:10:48;;;;;;;3.45;2.00;;;22.90;37.60;;;;;;5096856;28;20020;-38
2022/05/31 04:13:15;;;;;;;2.67;1.60;;;22.90;37.60;;;;;;5096752;28;20016;-36
2022/05/31 04:15:41;;;;;;;3.05;1.90;;;22.90;37.60;;;;;;5096631;28;20023;-37
2022/05/31 04:18:07;;;;;;;3.03;1.88;;;22.90;37.70;;;;;;5096583;28;20024;-36
2022/05/31 04:20:34;;;;;;;2.35;1.55;;;22.90;37.70;;;;;;5097726;28;20026;-36
2022/05/31 04:25:44;;;;;;;2.70;1.80;;;22.90;37.70;;;;;;5097085;28;20030;-36
2022/05/31 04:28:10;;;;;;;2.67;1.73;;;22.90;37.70;;;;;;5096848;28;20016;-40
2022/05/31 04:30:39;;;;;;;2.33;1.75;;;22.90;37.70;;;;;;5095525;28;20012;-37
2022/05/31 04:33:05;;;;;;;2.47;1.83;;;22.90;37.70;;;;;;5096149;28;20008;-37
2022/05/31 04:35:30;;;;;;;2.20;1.70;;;22.90;37.70;;;;;;5096753;28;20024;-36
2022/05/31 04:37:56;;;;;;;2.97;2.00;;;22.90;37.70;;;;;;5096481;28;20068;-36
2022/05/31 04:40:24;;;;;;;2.65;1.88;;;22.90;37.80;;;;;;5095416;28;20068;-37
2022/05/31 04:42:51;;;;;;;1.85;1.65;;;22.90;37.80;;;;;;5096793;28;20029;-37
2022/05/31 04:45:16;;;;;;;2.45;1.65;;;22.90;37.80;;;;;;5096417;28;20019;-36
2022/05/31 04:47:43;;;;;;;2.67;1.95;;;22.90;38.30;;;;;;5096694;28;20020;-37
2022/05/31 04:50:09;;;;;;;1.77;1.55;;;22.90;37.80;;;;;;5095180;28;20051;-38
2022/05/31 04:52:36;;;;;;;3.67;1.95;;;22.90;37.70;;;;;;5096738;28;20036;-38
2022/05/31 04:55:02;;;;;;;2.95;1.98;;;22.90;37.70;;;;;;5096521;28;20483;-36
2022/05/31 04:57:28;;;;;;;3.33;1.67;;;22.90;37.70;;;;;;5096406;28;20031;-36
2022/05/31 04:59:54;;;;;;;2.67;1.80;;;22.90;37.70;;;;;;5096289;28;20031;-36
2022/05/31 05:02:19;;;;;;;2.55;1.70;;;22.90;37.70;;;;;;5096282;28;20024;-36
2022/05/31 05:04:45;;;;;;;2.97;1.80;;;22.90;37.70;;;;;;5094977;28;20375;-37
2022/05/31 05:07:12;;;;;;;1.85;1.55;;;22.90;37.70;;;;;;5096020;28;20017;-38
2022/05/31 05:09:38;;;;;;;2.50;1.50;;;22.90;37.70;;;;;;5097368;28;20008;-38
2022/05/31 05:12:04;;;;;;;3.25;1.90;;;22.90;37.70;;;;;;5095926;28;20382;-37
2022/05/31 05:14:30;;;;;;;2.45;1.70;;;22.90;37.70;;;;;;5097147;28;20033;-37
2022/05/31 05:16:56;;;;;;;2.30;1.70;;;22.90;37.70;;;;;;5097231;28;20028;-38
2022/05/31 05:19:24;;;;;;;2.65;1.70;;;22.90;37.70;;;;;;5097394;28;20023;-37
2022/05/31 05:21:53;;;;;;;2.22;1.70;;;22.90;37.60;;;;;;5095981;28;20020;-40
2022/05/31 05:24:19;;;;;;;2.45;1.80;;;22.90;37.60;;;;;;5097006;28;20119;-37
2022/05/31 05:26:45;;;;;;;2.17;1.58;;;22.90;37.60;;;;;;5095769;28;20020;-38
2022/05/31 05:31:57;;;;;;;2.42;1.70;;;22.90;37.80;;;;;;5097723;28;20027;-37
2022/05/31 05:34:23;;;;;;;2.45;1.70;;;22.90;37.80;;;;;;5098383;28;20016;-38
2022/05/31 05:36:50;;;;;;;2.63;1.80;;;22.90;37.70;;;;;;5098019;28;20043;-37
2022/05/31 05:39:15;;;;;;;2.55;1.70;;;22.90;37.60;;;;;;5095676;28;20015;-38
2022/05/31 05:41:45;;;;;;;2.05;1.48;;;22.90;37.60;;;;;;5097196;28;20043;-37
2022/05/31 05:44:11;;;;;;;2.47;1.67;;;22.90;37.60;;;;;;5095234;28;20028;-36
2022/05/31 05:46:36;;;;;;;2.40;1.90;;;23.00;37.60;;;;;;5094708;28;20048;-37
2022/05/31 05:49:02;;;;;;;1.67;1.48;;;23.00;37.60;;;;;;5094663;28;20016;-37
2022/05/31 05:51:30;;;;;;;3.00;1.55;;;23.00;37.60;;;;;;5094066;28;20025;-36
2022/05/31 05:53:56;;;;;;;1.70;1.55;;;23.10;37.60;;;;;;5094399;28;20048;-37
2022/05/31 05:56:22;;;;;;;2.28;1.65;;;23.20;37.30;;;;;;5094244;28;20419;-36
2022/05/31 05:58:48;;;;;;;2.42;1.63;;;23.20;37.60;;;;;;5093985;28;20028;-37
2022/05/31 06:01:37;;;;;;;2.30;1.70;;;23.30;36.90;;;;;;5095215;28;20012;-37
2022/05/31 06:04:18;;;;;;;3.15;1.90;;;23.40;36.70;;;;;;5094057;28;20068;-36
2022/05/31 06:06:44;;;;;;;2.00;1.52;;;23.50;36.60;;;;;;5096656;28;20024;-37
2022/05/31 06:09:13;;;;;;;2.88;1.60;;;23.60;36.50;;;;;;5095958;28;20155;-38
2022/05/31 06:11:43;;;;;;;3.60;1.85;;;23.60;36.20;;;;;;5096745;28;20061;-37
2022/05/31 06:14:15;;;;;;;2.13;1.50;;;23.80;36.20;;;;;;5097213;28;20016;-36
2022/05/31 06:16:43;;;;;;;1.95;1.45;;;23.80;36.10;;;;;;5093426;28;20048;-37
2022/05/31 06:19:16;;;;;;;2.80;1.60;;;23.90;35.80;;;;;;5093386;28;20031;-37
2022/05/31 06:21:43;;;;;;;3.88;1.80;;;23.90;35.70;;;;;;5090955;28;20103;-37
2022/05/31 06:24:09;;;;;;;7.82;1.85;;;23.90;35.90;;;;;;5091473;28;20043;-37
2022/05/31 06:26:35;;;;;;;13.48;2.95;;;23.50;36.70;;;;;;5093540;28;20028;-37
2022/05/31 06:29:03;;;;;;;15.85;2.88;;;23.70;37.50;;;;;;5094701;28;20091;-38
2022/05/31 06:31:29;;;;;;;15.93;3.22;;;23.60;37.80;;;;;;5093701;28;20470;-37
2022/05/31 06:33:54;;;;;;;18.98;3.38;;;23.70;37.90;;;;;;5094895;28;20019;-38
2022/05/31 06:36:20;;;;;;;15.88;3.20;;;23.70;37.60;;;;;;5093968;28;20020;-37
2022/05/31 06:38:46;;;;;;;17.15;3.13;;;23.80;37.00;;;;;;5094817;28;20066;-38
2022/05/31 06:41:12;;;;;;;17.83;3.03;;;23.80;37.20;;;;;;5094149;28;20047;-40
2022/05/31 06:43:38;;;;;;;14.70;3.72;;;23.80;37.20;;;;;;5094552;28;20020;-37
2022/05/31 06:46:08;;;;;;;12.75;3.40;;;23.90;36.70;;;;;;5094106;28;20088;-41
2022/05/31 06:48:34;;;;;;;13.57;3.03;;;24.00;36.40;;;;;;5094027;28;20035;-37
2022/05/31 06:51:07;;;;;;;8.95;3.08;;;24.00;36.30;;;;;;5094205;28;20004;-38
2022/05/31 06:59:01;;;;;;;9.07;2.45;;;24.20;35.60;;;;;;5093902;28;20140;-40
2022/05/31 07:01:37;;;;;;;8.38;2.80;;;24.20;35.30;;;;;;5092396;28;20020;-38
2022/05/31 07:04:02;;;;;;;9.32;2.70;;;24.30;35.30;;;;;;5093005;28;20024;-37
2022/05/31 07:06:28;;;;;;;6.07;2.10;;;24.40;35.20;;;;;;5094059;28;20478;-38
2022/05/31 07:08:54;;;;;;;6.78;2.30;;;24.60;34.80;;;;;;5094625;28;20432;-38
2022/05/31 07:11:21;;;;;;;7.72;2.10;;;24.70;34.60;;;;;;5092547;28;20016;-37
2022/05/31 07:13:47;;;;;;;5.55;2.05;;;24.80;34.50;;;;;;5074891;28;20012;-37
2022/05/31 07:16:13;;;;;;;9.43;2.00;;;24.90;34.30;;;;;;5092161;28;20063;-37
2022/05/31 07:18:39;;;;;;;10.07;2.03;;;25.00;34.10;;;;;;5091850;28;20016;-37
2022/05/31 07:21:04;;;;;;;11.95;2.60;;;25.10;33.80;;;;;;5092468;28;20027;-36
2022/05/31 07:23:30;;;;;;;26.02;3.30;;;25.00;34.10;;;;;;5091529;28;20406;-37
2022/05/31 07:25:57;;;;;;;22.33;3.08;;;25.20;34.60;;;;;;5092473;28;20016;-36
2022/05/31 07:28:23;;;;;;;14.63;2.60;;;25.40;35.00;;;;;;5091449;28;20004;-36
2022/05/31 07:30:49;;;;;;;14.95;2.95;;;25.40;35.00;;;;;;5076206;28;20103;-35
2022/05/31 07:33:16;;;;;;;11.45;2.78;;;25.50;34.90;;;;;;5096645;28;20016;-35
2022/05/31 07:35:41;;;;;;;9.60;2.72;;;25.40;35.60;;;;;;5094901;28;20027;-36
2022/05/31 07:38:08;;;;;;;7.65;2.60;;;24.10;34.80;;;;;;5078892;28;20028;-36
2022/05/31 07:40:34;;;;;;;11.70;2.90;;;23.10;36.30;;;;;;5095132;28;20023;-36
2022/05/31 07:43:01;;;;;;;11.77;3.10;;;22.50;37.80;;;;;;5096456;28;20024;-36
2022/05/31 07:45:27;;;;;;;7.55;2.38;;;22.80;38.10;;;;;;5095053;28;20020;-37
2022/05/31 07:47:53;;;;;;;8.13;2.20;;;23.00;38.50;;;;;;5095827;28;20423;-37
2022/05/31 07:50:19;;;;;;;11.18;2.40;;;23.70;37.20;;;;;;5096224;28;20076;-36
2022/05/31 07:52:47;;;;;;;10.60;2.65;;;24.00;36.10;;;;;;5095907;28;20466;-37
2022/05/31 07:55:13;;;;;;;10.30;2.25;;;24.10;35.20;;;;;;5096081;28;20343;-36
2022/05/31 08:00:25;;;;;;;13.32;2.60;;;23.80;35.90;;;;;;5096229;28;20579;-37
2022/05/31 08:02:51;;;;;;;13.55;2.83;;;24.00;36.50;;;;;;5096418;28;20020;-38
2022/05/31 08:05:17;;;;;;;16.88;2.97;;;24.00;35.90;;;;;;5077986;28;20019;-37
2022/05/31 08:07:43;;;;;;;23.90;3.60;;;23.90;36.20;;;;;;5095231;28;20024;-38
2022/05/31 08:10:10;;;;;;;16.25;2.70;;;23.30;37.30;;;;;;5096726;28;20435;-36
2022/05/31 08:12:38;;;;;;;13.95;2.97;;;23.70;36.80;;;;;;5097120;28;20020;-37
2022/05/31 08:15:05;;;;;;;15.93;2.60;;;24.10;35.80;;;;;;5079087;28;20012;-37
2022/05/31 08:17:31;;;;;;;13.75;2.75;;;24.70;34.40;;;;;;5094476;28;20051;-37
2022/05/31 08:19:57;;;;;;;11.65;2.70;;;25.00;33.60;;;;;;5097132;28;20420;-38
2022/05/31 08:22:23;;;;;;;16.25;2.88;;;25.20;32.60;;;;;;5096068;28;20153;-38
2022/05/31 08:24:49;;;;;;;10.48;2.70;;;25.10;32.70;;;;;;5096111;28;20032;-37
2022/05/31 08:27:15;;;;;;;12.50;2.47;;;25.20;31.80;;;;;;5096308;28;20042;-38
2022/05/31 08:29:41;;;;;;;9.57;1.90;;;25.30;31.50;;;;;;5095710;28;20013;-38
2022/05/31 08:32:07;;;;;;;8.40;1.98;;;25.30;31.00;;;;;;5094468;28;20153;-38
2022/05/31 08:34:33;;;;;;;9.15;2.08;;;25.30;30.60;;;;;;5096470;28;20027;-37
2022/05/31 08:36:58;;;;;;;5.95;1.80;;;25.30;30.90;;;;;;5096073;28;20433;-37
2022/05/31 08:39:24;;;;;;;10.45;1.85;;;25.30;30.60;;;;;;5096542;28;20387;-38
2022/05/31 08:41:52;;;;;;;5.93;1.60;;;25.30;30.50;;;;;;5097195;28;20420;-38
2022/05/31 08:44:42;;;;;;;4.35;1.90;;;25.30;30.00;;;;;;5097069;28;20127;-38
2022/05/31 08:47:36;;;;;;;6.45;1.90;;;25.40;29.60;;;;;;5096156;28;20026;-37
2022/05/31 08:53:06;;;;;;;3.63;1.45;;;25.50;29.30;;;;;;5096078;28;20034;-36
2022/05/31 08:58:51;;;;;;;5.95;1.50;;;25.60;29.30;;;;;;5094830;28;20027;-40
2022/05/31 09:01:18;;;;;;;3.42;1.42;;;25.40;28.80;;;;;;5091463;28;20024;-38
2022/05/31 09:04:20;;;;;;;6.32;1.30;;;25.30;28.90;;;;;;5096600;28;20024;-38
2022/05/31 09:06:53;;;;;;;5.20;1.55;;;25.40;28.80;;;;;;5080696;28;20019;-42
2022/05/31 09:09:24;;;;;;;5.93;1.48;;;25.40;29.10;;;;;;5095329;28;20015;-38
2022/05/31 09:11:57;;;;;;;11.40;2.20;;;25.00;29.50;;;;;;5095655;28;20015;-36
2022/05/31 09:14:43;;;;;;;33.00;2.30;;;24.10;31.50;;;;;;5093027;28;20062;-37
2022/05/31 09:17:21;;;;;;;12.60;2.03;;;23.40;33.80;;;;;;5093201;28;20035;-36
2022/05/31 09:20:13;;;;;;;12.60;2.80;;;23.80;32.90;;;;;;5094063;28;20024;-37
2022/05/31 09:22:41;;;;;;;21.77;2.50;;;24.40;32.30;;;;;;5093135;28;20069;-37
2022/05/31 09:25:07;;;;;;;39.72;3.20;;;24.40;32.10;;;;;;5095034;28;20101;-37
2022/05/31 09:27:39;;;;;;;21.23;2.40;;;23.80;31.60;;;;;;5092988;28;20125;-38
2022/05/31 09:30:24;;;;;;;19.35;3.03;;;24.00;32.50;;;;;;5094381;28;20008;-37
2022/05/31 09:33:04;;;;;;;15.90;2.38;;;23.50;33.00;;;;;;5094179;28;20024;-37
2022/05/31 09:35:51;;;;;;;24.65;2.60;;;23.30;33.70;;;;;;5094788;28;20170;-37
2022/05/31 09:38:32;;;;;;;26.58;2.95;;;23.80;32.70;;;;;;5094151;28;20020;-36
2022/05/31 09:41:09;;;;;;;20.00;2.50;;;24.00;32.30;;;;;;5094290;28;20031;-37
2022/05/31 09:43:39;;;;;;;24.75;2.50;;;23.80;31.10;;;;;;5092423;28;20032;-37
2022/05/31 09:46:10;;;;;;;16.17;2.55;;;23.90;32.30;;;;;;5058936;28;20382;-36
2022/05/31 09:48:45;;;;;;;14.43;1.90;;;24.20;31.50;;;;;;5094147;28;20036;-37
2022/05/31 09:51:19;;;;;;;6.68;1.42;;;24.40;30.70;;;;;;5093626;28;20087;-37
2022/05/31 09:59:13;;;;;;;6.97;1.35;;;23.70;30.30;;;;;;5092074;28;20089;-37
2022/05/31 10:01:46;;;;;;;13.80;1.92;;;23.50;30.90;;;;;;5092855;28;20013;-37
2022/05/31 10:04:26;;;;;;;12.63;1.48;;;23.80;30.60;;;;;;5095110;28;20035;-37
2022/05/31 10:07:03;;;;;;;9.35;1.70;;;23.60;30.80;;;;;;5094516;28;20004;-36
2022/05/31 10:09:34;;;;;;;8.00;1.60;;;23.00;31.50;;;;;;5093983;28;20016;-37
2022/05/31 10:12:13;;;;;;;11.88;1.65;;;22.80;32.10;;;;;;5094012;28;20027;-37
2022/05/31 10:14:44;;;;;;;7.20;1.80;;;23.30;30.60;;;;;;5093321;28;20025;-37
2022/05/31 10:17:32;;;;;;;5.07;1.52;;;23.40;30.70;;;;;;5075618;28;20012;-37
2022/05/31 10:20:23;;;;;;;6.88;1.20;;;23.70;30.00;;;;;;5092962;28;20113;-38
2022/05/31 10:22:49;;;;;;;6.47;1.33;;;23.80;29.20;;;;;;5092813;28;20130;-36
2022/05/31 10:25:20;;;;;;;4.13;1.17;;;23.80;29.80;;;;;;5095132;28;20036;-36
2022/05/31 10:27:45;;;;;;;6.80;1.30;;;23.90;28.80;;;;;;5094281;28;20016;-38
2022/05/31 10:30:22;;;;;;;5.57;1.17;;;23.90;29.00;;;;;;5092804;28;20016;-37
2022/05/31 10:32:51;;;;;;;3.35;1.05;;;23.50;29.00;;;;;;5091519;28;20517;-37
2022/05/31 10:35:24;;;;;;;4.88;1.00;;;23.00;29.50;;;;;;5092481;28;20016;-37
2022/05/31 10:38:04;;;;;;;4.90;1.08;;;23.20;29.50;;;;;;5093362;28;20143;-37
2022/05/31 10:41:09;;;;;;;3.78;0.93;;;23.10;29.30;;;;;;5093844;28;20018;-36
2022/05/31 10:43:40;;;;;;;14.02;1.88;;;23.40;28.80;;;;;;5054213;28;20112;-39
2022/05/31 10:46:11;;;;;;;5.05;0.85;;;23.60;28.30;;;;;;5071438;28;20058;-37
2022/05/31 10:48:46;;;;;;;4.13;0.95;;;23.60;28.10;;;;;;5070308;28;20044;-37
2022/05/31 10:51:32;;;;;;;21.80;2.03;;;23.60;27.90;;;;;;5053221;28;20017;-36
2022/05/31 10:53:58;;;;;;;22.58;3.70;;;23.40;29.50;;;;;;5070962;28;20506;-37
2022/05/31 10:56:50;;;;;;;18.35;1.80;;;23.10;29.90;;;;;;5070329;28;20021;-37
2022/05/31 10:59:18;;;;;;;11.40;1.42;;;23.20;29.70;;;;;;5069911;28;20032;-37
2022/05/31 11:01:53;;;;;;;7.18;1.50;;;23.40;29.20;;;;;;5053268;28;20554;-37
2022/05/31 11:04:25;;;;;;;9.73;1.23;;;23.60;29.10;;;;;;5053613;28;20120;-37
2022/05/31 11:06:55;;;;;;;5.78;1.30;;;23.30;29.60;;;;;;5056708;28;20528;-37
2022/05/31 11:12:37;;;;;;;5.75;1.38;;;23.80;27.90;;;;;;5061938;28;20107;-37
2022/05/31 11:15:26;;;;;;;8.25;1.27;;;23.40;28.40;;;;;;5091425;28;20028;-37
2022/05/31 11:18:14;;;;;;;3.90;1.10;;;23.30;28.60;;;;;;5095998;28;20024;-37
2022/05/31 11:20:48;;;;;;;4.47;1.10;;;23.80;28.40;;;;;;5096000;28;20270;-37
2022/05/31 11:23:14;;;;;;;4.90;1.00;;;23.80;28.00;;;;;;5095729;28;20108;-37
2022/05/31 11:26:07;;;;;;;7.45;1.27;;;23.60;28.10;;;;;;5094523;28;20020;-37
2022/05/31 11:29:00;;;;;;;10.10;1.42;;;23.30;29.40;;;;;;5095722;28;20027;-37
2022/05/31 11:31:35;;;;;;;6.80;1.20;;;23.50;28.80;;;;;;5095579;28;20482;-38
2022/05/31 11:34:17;;;;;;;8.40;1.38;;;23.50;29.30;;;;;;5095832;28;20021;-41
2022/05/31 11:36:54;;;;;;;5.93;1.40;;;23.60;29.60;;;;;;5094026;28;20020;-37
2022/05/31 11:39:42;;;;;;;10.07;2.28;;;23.80;29.80;;;;;;5094504;28;20020;-38
2022/05/31 11:42:37;;;;;;;15.27;1.60;;;23.80;29.70;;;;;;5095244;28;20016;-37
2022/05/31 11:45:41;;;;;;;11.02;1.60;;;23.40;31.10;;;;;;5096948;28;20073;-37
2022/05/31 11:48:22;;;;;;;6.53;1.30;;;23.70;31.10;;;;;;5096925;28;20016;-38
2022/05/31 11:51:13;;;;;;;8.10;1.35;;;23.80;29.80;;;;;;5094869;28;20015;-38
2022/05/31 11:54:01;;;;;;;8.00;1.08;;;23.90;29.50;;;;;;5096060;28;20050;-37
2022/05/31 11:56:45;;;;;;;6.53;1.35;;;23.70;29.10;;;;;;5096244;28;20027;-38
2022/05/31 11:59:21;;;;;;;7.07;1.70;;;23.80;29.40;;;;;;5097051;28;20077;-37
2022/05/31 12:02:08;;;;;;;7.65;1.45;;;23.90;29.10;;;;;;5095665;28;20020;-37
2022/05/31 12:04:49;;;;;;;5.25;1.45;;;23.90;29.10;;;;;;5095762;28;20039;-37
2022/05/31 12:07:34;;;;;;;5.70;1.10;;;23.80;28.90;;;;;;5096289;28;20480;-38
2022/05/31 12:10:06;;;;;;;3.83;1.00;;;24.00;28.70;;;;;;5095826;28;20024;-37
2022/05/31 12:12:33;;;;;;;5.03;1.10;;;23.90;29.00;;;;;;5096962;28;20493;-37
2022/05/31 12:15:10;;;;;;;5.65;1.15;;;23.90;28.70;;;;;;5095228;28;20019;-37
2022/05/31 12:17:48;;;;;;;3.08;1.13;;;24.00;29.10;;;;;;5095419;28;20024;-37
2022/05/31 12:20:23;;;;;;;2.75;1.10;;;23.90;28.90;;;;;;5094954;28;20021;-39
2022/05/31 12:23:03;;;;;;;4.35;0.95;;;23.90;28.80;;;;;;5094485;28;20044;-37
2022/05/31 12:25:33;;;;;;;5.45;1.20;;;23.70;29.10;;;;;;5095623;28;20016;-37
2022/05/31 12:28:07;;;;;;;5.80;1.13;;;23.60;29.30;;;;;;5094520;28;20019;-37
2022/05/31 12:30:50;;;;;;;3.72;0.95;;;23.70;29.60;;;;;;5092995;28;20146;-37
2022/05/31 12:33:25;;;;;;;6.78;1.10;;;23.80;29.00;;;;;;5076363;28;20024;-37
2022/05/31 12:35:53;;;;;;;7.20;1.50;;;23.90;29.10;;;;;;5092663;28;20020;-37
2022/05/31 12:38:19;;;;;;;4.70;1.27;;;23.90;28.80;;;;;;5094540;28;20026;-37
2022/05/31 12:40:51;;;;;;;5.40;1.23;;;24.00;28.70;;;;;;5093616;28;20012;-37
2022/05/31 12:43:32;;;;;;;6.15;1.20;;;24.10;28.80;;;;;;5094018;28;20045;-38
2022/05/31 12:45:58;;;;;;;5.05;1.10;;;23.80;28.60;;;;;;5094426;28;20065;-37
2022/05/31 12:48:25;;;;;;;5.95;1.30;;;23.80;28.60;;;;;;5093478;28;20019;-39
2022/05/31 12:50:51;;;;;;;6.80;1.25;;;23.90;28.80;;;;;;5093357;28;20084;-38
2022/05/31 12:53:20;;;;;;;5.03;1.10;;;24.00;28.60;;;;;;5094018;28;20020;-37
2022/05/31 12:55:47;;;;;;;10.68;1.73;;;24.20;28.50;;;;;;5092636;28;20047;-37
2022/05/31 12:58:39;;;;;;;6.15;1.30;;;24.20;28.90;;;;;;5094529;28;20139;-41
2022/05/31 13:01:11;;;;;;;4.50;1.13;;;24.30;29.00;;;;;;5095375;28;20051;-38
2022/05/31 13:03:37;;;;;;;5.68;1.33;;;24.30;28.50;;;;;;5094613;28;20027;-37
2022/05/31 13:06:11;;;;;;;7.85;1.17;;;24.20;28.40;;;;;;5094034;28;20352;-38
2022/05/31 13:08:42;;;;;;;6.28;1.20;;;24.20;28.50;;;;;;5092495;28;20431;-40
2022/05/31 13:19:41;;;;;;;6.80;1.25;;;24.90;28.10;;;;;;5093629;28;20031;-38
2022/05/31 13:22:17;;;;;;;3.78;1.60;;;25.00;28.10;;;;;;5095230;28;21675;-38
2022/05/31 13:24:48;;;;;;;8.40;1.20;;;25.00;28.10;;;;;;5095448;28;20104;-38
2022/05/31 13:27:18;;;;;;;7.40;1.20;;;25.10;28.20;;;;;;5095751;28;20012;-39
2022/05/31 13:29:44;;;;;;;8.27;1.50;;;25.10;28.20;;;;;;5095222;28;20032;-39
2022/05/31 13:32:10;;;;;;;5.05;1.30;;;25.10;28.20;;;;;;5095785;28;20015;-42
2022/05/31 13:34:43;;;;;;;8.68;1.50;;;25.10;28.20;;;;;;5096477;28;20081;-39
2022/05/31 13:37:19;;;;;;;5.97;1.23;;;25.10;28.30;;;;;;5096628;28;20085;-39
2022/05/31 13:39:46;;;;;;;8.98;1.85;;;25.10;28.40;;;;;;5097706;28;20024;-38
2022/05/31 13:42:25;;;;;;;4.97;1.00;;;25.10;28.40;;;;;;5095661;28;20043;-39
2022/05/31 13:44:51;;;;;;;4.63;1.20;;;25.20;28.50;;;;;;5095935;28;20039;-37